Time,TemperatureF,DewpointF,PressureIn,WindDirection,WindDirectionDegrees,WindSpeedMPH,WindSpeedGustMPH,Humidity,HourlyPrecipIn,Conditions,Clouds,dailyrainin,SoftwareType,DateUTC
2013-02-13 00:01:00,38.4,29.0,29.74,West,265,2.0,9.0,70,0.00,,,0.00,weatherlink.com 1.10,2013-02-13 05:01:00,
2013-02-13 00:16:00,38.0,29.0,29.73,West,281,3.0,9.0,71,0.00,,,0.00,weatherlink.com 1.10,2013-02-13 05:16:00,
2013-02-13 00:31:00,37.9,29.0,29.73,West,273,4.0,9.0,71,0.00,,,0.00,weatherlink.com 1.10,2013-02-13 05:31:00,
2013-02-13 00:46:00,37.9,29.0,29.74,West,267,5.0,13.0,71,0.00,,,0.00,weatherlink.com 1.10,2013-02-13 05:46:00,
2013-02-13 01:01:00,37.8,30.0,29.74,WSW,244,5.0,8.0,72,0.00,,,0.00,weatherlink.com 1.10,2013-02-13 06:01:00,
2013-02-13 01:16:00,37.2,29.0,29.73,West,266,0.0,7.0,73,0.00,,,0.00,weatherlink.com 1.10,2013-02-13 06:16:00,
2013-02-13 01:31:00,36.9,29.0,29.73,WNW,290,2.0,13.0,74,0.00,,,0.00,weatherlink.com 1.10,2013-02-13 06:31:00,
2013-02-13 01:46:00,36.4,29.0,29.74,WNW,282,4.0,8.0,75,0.00,,,0.00,weatherlink.com 1.10,2013-02-13 06:46:00,
2013-02-13 02:01:00,35.9,29.0,29.74,WNW,285,4.0,8.0,76,0.00,,,0.00,weatherlink.com 1.10,2013-02-13 07:01:00,
2013-02-13 02:16:00,36.1,29.0,29.73,WNW,298,3.0,11.0,76,0.00,,,0.00,weatherlink.com 1.10,2013-02-13 07:16:00,
2013-02-13 02:31:00,36.7,29.0,29.74,West,274,3.0,14.0,73,0.00,,,0.00,weatherlink.com 1.10,2013-02-13 07:31:00,
2013-02-13 02:47:00,36.6,29.0,29.75,WNW,291,6.0,14.0,73,0.00,,,0.00,weatherlink.com 1.10,2013-02-13 07:47:00,
2013-02-13 03:02:00,36.3,28.0,29.75,West,268,9.0,15.0,73,0.00,,,0.00,weatherlink.com 1.10,2013-02-13 08:02:00,
2013-02-13 03:16:00,35.9,28.0,29.75,WNW,296,5.0,12.0,74,0.00,,,0.00,weatherlink.com 1.10,2013-02-13 08:16:00,
2013-02-13 03:31:00,35.9,29.0,29.75,WNW,296,5.0,12.0,75,0.00,,,0.00,weatherlink.com 1.10,2013-02-13 08:31:00,
2013-02-13 03:46:00,35.7,29.0,29.75,NW,311,7.0,13.0,75,0.00,,,0.00,weatherlink.com 1.10,2013-02-13 08:46:00,
2013-02-13 04:01:00,35.7,29.0,29.75,WNW,296,12.0,16.0,75,0.00,,,0.00,weatherlink.com 1.10,2013-02-13 09:01:00,
2013-02-13 04:16:00,36.4,29.0,29.75,WNW,297,8.0,17.0,73,0.00,,,0.00,weatherlink.com 1.10,2013-02-13 09:16:00,
2013-02-13 04:32:00,36.6,28.0,29.76,WNW,295,9.0,20.0,72,0.00,,,0.00,weatherlink.com 1.10,2013-02-13 09:32:00,
2013-02-13 04:46:00,36.7,28.0,29.75,WNW,286,10.0,17.0,71,0.00,,,0.00,weatherlink.com 1.10,2013-02-13 09:46:00,
2013-02-13 05:02:00,36.8,28.0,29.76,WNW,284,14.0,17.0,70,0.00,,,0.00,weatherlink.com 1.10,2013-02-13 10:02:00,
2013-02-13 05:17:00,36.9,28.0,29.76,West,273,9.0,19.0,69,0.00,,,0.00,weatherlink.com 1.10,2013-02-13 10:17:00,
2013-02-13 05:32:00,36.8,27.0,29.76,NW,324,14.0,15.0,69,0.00,,,0.00,weatherlink.com 1.10,2013-02-13 10:32:00,
2013-02-13 05:46:00,36.8,27.0,29.75,WNW,302,13.0,17.0,67,0.00,,,0.00,weatherlink.com 1.10,2013-02-13 10:46:00,
2013-02-13 06:01:00,36.8,27.0,29.75,NW,313,8.0,20.0,67,0.00,,,0.00,weatherlink.com 1.10,2013-02-13 11:01:00,
2013-02-13 06:17:00,36.7,27.0,29.76,NW,317,9.0,15.0,67,0.00,,,0.00,weatherlink.com 1.10,2013-02-13 11:17:00,
2013-02-13 06:32:00,36.8,27.0,29.75,NW,304,12.0,21.0,67,0.00,,,0.00,weatherlink.com 1.10,2013-02-13 11:32:00,
2013-02-13 06:47:00,36.7,26.0,29.75,NW,324,8.0,19.0,66,0.00,,,0.00,weatherlink.com 1.10,2013-02-13 11:47:00,
2013-02-13 07:02:00,36.6,27.0,29.76,WNW,303,8.0,19.0,67,0.00,,,0.00,weatherlink.com 1.10,2013-02-13 12:02:00,
2013-02-13 07:17:00,36.6,26.0,29.76,NW,311,9.0,18.0,66,0.00,,,0.00,weatherlink.com 1.10,2013-02-13 12:17:00,
2013-02-13 07:32:00,36.6,26.0,29.76,WNW,292,13.0,20.0,66,0.00,,,0.00,weatherlink.com 1.10,2013-02-13 12:32:00,
2013-02-13 07:47:00,36.6,26.0,29.77,NW,317,8.0,20.0,66,0.00,,,0.00,weatherlink.com 1.10,2013-02-13 12:47:00,
2013-02-13 08:02:00,36.6,27.0,29.79,WNW,296,0.0,12.0,67,0.00,,,0.00,weatherlink.com 1.10,2013-02-13 13:02:00,
2013-02-13 08:17:00,36.8,26.0,29.79,WNW,302,5.0,9.0,66,0.00,,,0.00,weatherlink.com 1.10,2013-02-13 13:17:00,
2013-02-13 08:32:00,36.9,26.0,29.80,NNW,327,6.0,10.0,65,0.00,,,0.00,weatherlink.com 1.10,2013-02-13 13:32:00,
2013-02-13 08:47:00,37.2,26.0,29.80,NNW,342,5.0,8.0,64,0.00,,,0.00,weatherlink.com 1.10,2013-02-13 13:47:00,
2013-02-13 09:02:00,37.8,26.0,29.80,WNW,294,2.0,10.0,63,0.00,,,0.00,weatherlink.com 1.10,2013-02-13 14:02:00,
2013-02-13 09:17:00,38.2,25.0,29.80,WNW,285,5.0,12.0,60,0.00,,,0.00,weatherlink.com 1.10,2013-02-13 14:17:00,
2013-02-13 09:32:00,38.2,26.0,29.80,NNW,340,7.0,9.0,61,0.00,,,0.00,weatherlink.com 1.10,2013-02-13 14:32:00,
2013-02-13 09:47:00,38.7,26.0,29.80,WNW,296,8.0,9.0,60,0.00,,,0.00,weatherlink.com 1.10,2013-02-13 14:47:00,
2013-02-13 10:02:00,39.0,26.0,29.80,West,281,8.0,9.0,59,0.00,,,0.00,weatherlink.com 1.10,2013-02-13 15:02:00,
2013-02-13 10:17:00,39.0,25.0,29.80,WNW,301,10.0,14.0,58,0.00,,,0.00,weatherlink.com 1.10,2013-02-13 15:17:00,
2013-02-13 10:32:00,39.2,25.0,29.80,NNW,338,4.0,15.0,58,0.00,,,0.00,weatherlink.com 1.10,2013-02-13 15:32:00,
2013-02-13 10:47:00,39.8,26.0,29.79,West,263,6.0,12.0,57,0.00,,,0.00,weatherlink.com 1.10,2013-02-13 15:47:00,
2013-02-13 11:02:00,40.1,25.0,29.79,NW,311,2.0,12.0,56,0.00,,,0.00,weatherlink.com 1.10,2013-02-13 16:02:00,
2013-02-13 11:17:00,40.4,26.0,29.78,NNW,328,5.0,11.0,56,0.00,,,0.00,weatherlink.com 1.10,2013-02-13 16:17:00,
2013-02-13 11:32:00,40.6,25.0,29.78,NW,312,4.0,11.0,55,0.00,,,0.00,weatherlink.com 1.10,2013-02-13 16:32:00,
2013-02-13 11:47:00,41.4,26.0,29.77,WNW,290,3.0,6.0,54,0.00,,,0.00,weatherlink.com 1.10,2013-02-13 16:47:00,
2013-02-13 12:02:00,41.4,25.0,29.77,NNW,330,6.0,8.0,53,0.00,,,0.00,weatherlink.com 1.10,2013-02-13 17:02:00,
2013-02-13 12:17:00,41.6,25.0,29.76,NNW,338,4.0,9.0,52,0.00,,,0.00,weatherlink.com 1.10,2013-02-13 17:17:00,
2013-02-13 12:32:00,41.7,26.0,29.75,NNW,339,3.0,10.0,53,0.00,,,0.00,weatherlink.com 1.10,2013-02-13 17:32:00,
2013-02-13 12:47:00,41.8,25.0,29.75,North,355,14.0,14.0,51,0.00,,,0.00,weatherlink.com 1.10,2013-02-13 17:47:00,
2013-02-13 13:03:00,42.0,25.0,29.75,NNW,342,7.0,13.0,51,0.00,,,0.00,weatherlink.com 1.10,2013-02-13 18:03:00,
2013-02-13 13:18:00,42.2,25.0,29.74,North,350,8.0,10.0,50,0.00,,,0.00,weatherlink.com 1.10,2013-02-13 18:18:00,
2013-02-13 13:32:00,43.5,25.0,29.75,WNW,303,11.0,11.0,48,0.00,,,0.00,weatherlink.com 1.10,2013-02-13 18:32:00,
2013-02-13 13:49:00,43.6,25.0,29.75,West,274,1.0,8.0,48,0.00,,,0.00,weatherlink.com 1.10,2013-02-13 18:49:00,
2013-02-13 14:02:00,44.1,25.0,29.75,West,279,5.0,13.0,47,0.00,,,0.00,weatherlink.com 1.10,2013-02-13 19:02:00,
2013-02-13 14:17:00,43.5,24.0,29.75,WSW,250,1.0,13.0,47,0.00,,,0.00,weatherlink.com 1.10,2013-02-13 19:17:00,
2013-02-13 14:32:00,42.8,24.0,29.75,WNW,301,2.0,11.0,48,0.00,,,0.00,weatherlink.com 1.10,2013-02-13 19:32:00,
2013-02-13 14:47:00,42.5,24.0,29.75,NW,306,3.0,8.0,49,0.00,,,0.00,weatherlink.com 1.10,2013-02-13 19:47:00,
2013-02-13 15:02:00,42.6,24.0,29.75,WNW,296,6.0,10.0,48,0.00,,,0.00,weatherlink.com 1.10,2013-02-13 20:02:00,
2013-02-13 15:18:00,42.6,24.0,29.75,NW,315,2.0,6.0,49,0.00,,,0.00,weatherlink.com 1.10,2013-02-13 20:18:00,
2013-02-13 15:32:00,42.5,24.0,29.75,NW,311,3.0,6.0,49,0.00,,,0.00,weatherlink.com 1.10,2013-02-13 20:32:00,
2013-02-13 15:47:00,42.5,24.0,29.74,NNW,333,5.0,9.0,49,0.00,,,0.00,weatherlink.com 1.10,2013-02-13 20:47:00,
2013-02-13 16:02:00,42.3,24.0,29.75,NNW,337,5.0,7.0,49,0.00,,,0.00,weatherlink.com 1.10,2013-02-13 21:02:00,
2013-02-13 16:18:00,41.9,24.0,29.75,NNW,333,5.0,10.0,49,0.00,,,0.00,weatherlink.com 1.10,2013-02-13 21:18:00,
2013-02-13 16:33:00,41.7,25.0,29.75,NW,323,4.0,7.0,51,0.00,,,0.00,weatherlink.com 1.10,2013-02-13 21:33:00,
2013-02-13 16:48:00,41.3,24.0,29.75,NW,309,2.0,6.0,50,0.00,,,0.00,weatherlink.com 1.10,2013-02-13 21:48:00,
2013-02-13 17:03:00,41.0,24.0,29.74,NW,323,1.0,5.0,52,0.00,,,0.00,weatherlink.com 1.10,2013-02-13 22:03:00,
2013-02-13 17:18:00,40.6,24.0,29.74,NNW,342,2.0,8.0,51,0.00,,,0.00,weatherlink.com 1.10,2013-02-13 22:18:00,
2013-02-13 17:33:00,39.7,23.0,29.74,NNW,340,3.0,7.0,52,0.00,,,0.00,weatherlink.com 1.10,2013-02-13 22:33:00,
2013-02-13 17:48:00,39.4,24.0,29.75,NNW,330,5.0,8.0,54,0.00,,,0.00,weatherlink.com 1.10,2013-02-13 22:48:00,
2013-02-13 18:03:00,38.2,25.0,29.75,NW,313,4.0,8.0,59,0.00,,,0.00,weatherlink.com 1.10,2013-02-13 23:03:00,
2013-02-13 18:18:00,38.0,26.0,29.75,WNW,289,2.0,7.0,62,0.00,,,0.00,weatherlink.com 1.10,2013-02-13 23:18:00,
2013-02-13 18:33:00,36.9,26.0,29.77,West,267,6.0,7.0,65,0.00,,,0.00,weatherlink.com 1.10,2013-02-13 23:33:00,
2013-02-13 18:48:00,36.4,26.0,29.77,WNW,290,3.0,5.0,66,0.00,,,0.00,weatherlink.com 1.10,2013-02-13 23:48:00,
2013-02-13 19:03:00,36.4,26.0,29.77,West,266,4.0,6.0,66,0.00,,,0.00,weatherlink.com 1.10,2013-02-14 00:03:00,
2013-02-13 19:18:00,36.3,25.0,29.77,West,263,5.0,8.0,64,0.00,,,0.00,weatherlink.com 1.10,2013-02-14 00:18:00,
2013-02-13 19:33:00,36.5,26.0,29.77,West,268,3.0,7.0,65,0.00,,,0.00,weatherlink.com 1.10,2013-02-14 00:33:00,
2013-02-13 19:48:00,36.9,26.0,29.77,WNW,284,4.0,8.0,64,0.00,,,0.00,weatherlink.com 1.10,2013-02-14 00:48:00,
2013-02-13 20:03:00,37.3,24.0,29.77,WNW,294,3.0,10.0,60,0.00,,,0.00,weatherlink.com 1.10,2013-02-14 01:03:00,
2013-02-13 20:18:00,37.5,24.0,29.77,NW,315,11.0,11.0,58,0.00,,,0.00,weatherlink.com 1.10,2013-02-14 01:18:00,
2013-02-13 20:33:00,37.9,23.0,29.77,WNW,290,5.0,12.0,55,0.00,,,0.00,weatherlink.com 1.10,2013-02-14 01:33:00,
2013-02-13 20:48:00,37.3,24.0,29.77,WNW,296,4.0,8.0,58,0.00,,,0.00,weatherlink.com 1.10,2013-02-14 01:48:00,
2013-02-13 21:03:00,37.0,24.0,29.77,NW,304,4.0,7.0,59,0.00,,,0.00,weatherlink.com 1.10,2013-02-14 02:03:00,
2013-02-13 21:18:00,36.7,24.0,29.77,WNW,294,4.0,8.0,60,0.00,,,0.00,weatherlink.com 1.10,2013-02-14 02:18:00,
2013-02-13 21:48:00,36.3,24.0,29.77,WSW,258,4.0,6.0,62,0.00,,,0.00,weatherlink.com 1.10,2013-02-14 02:48:00,
2013-02-13 22:03:00,36.1,24.0,29.77,West,277,0.0,7.0,62,0.00,,,0.00,weatherlink.com 1.10,2013-02-14 03:03:00,
2013-02-13 22:18:00,36.0,24.0,29.77,West,277,0.0,2.0,61,0.00,,,0.00,weatherlink.com 1.10,2013-02-14 03:18:00,
2013-02-13 22:33:00,35.8,23.0,29.77,WSW,246,2.0,3.0,61,0.00,,,0.00,weatherlink.com 1.10,2013-02-14 03:33:00,
2013-02-13 22:48:00,36.1,24.0,29.77,SW,230,3.0,5.0,61,0.00,,,0.00,weatherlink.com 1.10,2013-02-14 03:48:00,
2013-02-13 23:03:00,36.1,23.0,29.78,SW,230,0.0,4.0,60,0.00,,,0.00,weatherlink.com 1.10,2013-02-14 04:03:00,
2013-02-13 23:18:00,35.9,25.0,29.77,WSW,258,0.0,3.0,65,0.00,,,0.00,weatherlink.com 1.10,2013-02-14 04:18:00,
2013-02-13 23:48:00,35.0,25.0,29.76,SW,215,0.0,1.0,68,0.00,,,0.00,weatherlink.com 1.10,2013-02-14 04:48:00,